Senador Petrônio Portela Airport
SBTE : rendu visible

Aérodrome :











RETROUVEZ-NOUS SUR...

 
LOGIN :

S'inscrire | Disclaimer

   EN    FR    IT 

 









Légende :    VFR   VFR Marginal   IFR   IFR Intensif   IFR Très Intensif
Visi : 
Plafond : 
>= 8 km
>= 3000ft
5 à 8 km
1000 à 3000 ft
1500m à 5 km
500 à 1000 ft
800 à 1500m
200 à 500 ft
< 800m
< 200 ft
Symboles :   Orages  Brouillard  Fortes neiges  Fortes précipitations  Vent > 20 kt






- Altitude de l'aérodrome : 219 ft
- Code IATA : THE


SBTE - Senador Petrônio Portela

DERNIER METAR :
  • 090600Z 32004KT CAVOK 25/24 Q1010

METARs EXPIRÉS :
  • 090500Z 30005KT CAVOK 25/24 Q1011
  • 090400Z 34005KT CAVOK 26/24 Q1011

TAF TAF SBTE
Valide du 09 à 06h jusqu'au 09 à 18h UTC


090300Z 0906/0918 33005KT 9999 SCT007 TN25/0907Z TX35/0917Z
BECMG 0906/0908 BKN010
BECMG 0910/0912 13005KT SCT020
BECMG 0915/0917 SCT030 FEW035TCU
TEMPO 0917/0918 8000 TS SCT020 FEW030CB RMK PDU



MET'MAP, la Météo Aéronautique d'un coup d'oeil ! - Copyright ORBIFLY Décembre 2007 - Disclaimer

ORBIFLY MET'MAP TEAM :

Programmation & Développement : Alexandra Zaïnal
Sur une idée originale de : Baudouin d'Aumeries
Assistance à la programmation : Marc-Olivier Méhu
Soutien technique & logistique : Manuel Goepfert

Contact : metmap@orbifly.com




SOURCES & CREDITS :

   NOAA       Earth
Advisory